createdAt,value
2018-08-23T00:01:17.647Z,100436.83
2018-08-23T00:03:41.645Z,100433.28
2018-08-23T00:06:05.596Z,100435.80
2018-08-23T00:08:29.455Z,100390.20
2018-08-23T00:10:54.150Z,100432.34
2018-08-23T00:13:18.144Z,100429.59
2018-08-23T00:15:42.042Z,100426.44
2018-08-23T00:18:05.939Z,100428.23
2018-08-23T00:20:29.879Z,100425.00
2018-08-23T00:22:53.814Z,100419.18
2018-08-23T00:25:17.692Z,100417.63
2018-08-23T00:27:42.971Z,100415.00
2018-08-23T00:30:09.928Z,100419.89
2018-08-23T00:32:33.799Z,100412.38
2018-08-23T00:34:57.712Z,100410.09
2018-08-23T00:37:21.562Z,100408.11
2018-08-23T00:39:45.780Z,100401.56
2018-08-23T00:42:13.152Z,100409.17
2018-08-23T00:44:54.405Z,100407.48
2018-08-23T00:47:18.540Z,100409.15
2018-08-23T00:49:42.491Z,100404.73
2018-08-23T00:52:06.388Z,100410.87
2018-08-23T00:54:30.291Z,100406.68
2018-08-23T00:56:54.196Z,100403.49
2018-08-23T00:59:18.046Z,100395.52
2018-08-23T01:02:00.167Z,100395.23
2018-08-23T01:04:24.037Z,100398.86
2018-08-23T01:06:47.963Z,100399.77
2018-08-23T01:09:12.796Z,100394.09
2018-08-23T01:11:36.831Z,100387.00
2018-08-23T01:14:00.681Z,100385.17
2018-08-23T01:16:24.571Z,100386.91
2018-08-23T01:18:48.499Z,100384.25
2018-08-23T01:21:12.409Z,100380.04
2018-08-23T01:23:36.799Z,100378.12
2018-08-23T01:26:00.707Z,100380.41
2018-08-23T01:28:24.596Z,100378.19
2018-08-23T01:30:49.015Z,100377.61
2018-08-23T01:33:15.020Z,100371.94
2018-08-23T01:35:40.480Z,100374.88
2018-08-23T01:38:04.393Z,100374.42
2018-08-23T01:40:28.282Z,100369.39
2018-08-23T01:42:52.160Z,100361.94
2018-08-23T01:45:16.038Z,100362.30
2018-08-23T01:47:55.910Z,100359.00
2018-08-23T01:50:19.752Z,100362.02
2018-08-23T01:52:45.667Z,100352.28
2018-08-23T01:55:10.325Z,100353.70
2018-08-23T01:57:35.390Z,100352.73
2018-08-23T01:59:59.251Z,100351.57
2018-08-23T02:02:23.499Z,100350.16
2018-08-23T02:04:47.975Z,100347.19
2018-08-23T02:07:11.825Z,100346.00
2018-08-23T02:09:35.746Z,100348.37
2018-08-23T02:11:59.628Z,100339.47
2018-08-23T02:14:23.480Z,100341.34
2018-08-23T02:16:52.202Z,100339.05
2018-08-23T02:19:16.335Z,100344.11
2018-08-23T02:21:40.250Z,100346.58
2018-08-23T02:24:04.130Z,100347.66
2018-08-23T02:26:28.023Z,100356.82
2018-08-23T02:28:51.867Z,100350.88
2018-08-23T02:31:15.781Z,100350.05
2018-08-23T02:33:39.653Z,100353.21
2018-08-23T02:36:22.319Z,100350.52
2018-08-23T02:38:47.886Z,100341.58
2018-08-23T02:41:11.793Z,100351.44
2018-08-23T02:43:35.653Z,100353.44
2018-08-23T02:46:02.202Z,100340.97
2018-08-23T02:48:26.069Z,100343.19
2018-08-23T02:50:50.656Z,100342.19
2018-08-23T02:53:29.282Z,100341.00
2018-08-23T02:55:53.794Z,100337.39
2018-08-23T02:58:17.704Z,100335.52
2018-08-23T03:00:45.436Z,100339.77
2018-08-23T03:03:09.444Z,100337.20
2018-08-23T03:05:33.470Z,100340.84
2018-08-23T03:07:57.395Z,100332.84
2018-08-23T03:10:27.862Z,100328.66
2018-08-23T03:12:51.755Z,100337.05
2018-08-23T03:15:16.711Z,100335.80
2018-08-23T03:17:47.653Z,100337.85
2018-08-23T03:20:17.439Z,100321.21
2018-08-23T03:22:42.022Z,100319.80
2018-08-23T03:25:07.634Z,100318.03
2018-08-23T03:27:32.507Z,100321.11
2018-08-23T03:29:56.364Z,100315.55
2018-08-23T03:32:20.259Z,100312.08
2018-08-23T03:34:44.115Z,100310.75
2018-08-23T03:37:07.976Z,100303.98
2018-08-23T03:39:31.825Z,100309.20
2018-08-23T03:41:55.941Z,100308.77
2018-08-23T03:44:25.839Z,100302.06
2018-08-23T03:46:55.420Z,100305.80
2018-08-23T03:49:24.709Z,100309.89
2018-08-23T03:51:48.630Z,100311.47
2018-08-23T03:54:12.572Z,100308.29
2018-08-23T03:56:36.476Z,100315.71
2018-08-23T03:59:00.356Z,100311.30
2018-08-23T04:01:24.258Z,100309.67
2018-08-23T04:03:48.210Z,100310.63
2018-08-23T04:06:46.971Z,100312.31
2018-08-23T04:09:10.854Z,100315.67
2018-08-23T04:11:34.709Z,100317.75
2018-08-23T04:13:58.975Z,100320.26
2018-08-23T04:16:27.784Z,100317.03
2018-08-23T04:18:51.680Z,100306.10
2018-08-23T04:21:15.564Z,100312.95
2018-08-23T04:23:39.559Z,100315.02
2018-08-23T04:26:03.458Z,100316.56
2018-08-23T04:28:27.318Z,100272.91
2018-08-23T04:30:51.247Z,100320.52
2018-08-23T04:33:15.128Z,100314.86
2018-08-23T04:35:39.007Z,100314.68
2018-08-23T04:38:03.101Z,100311.47
2018-08-23T04:40:26.954Z,100305.31
2018-08-23T04:42:50.842Z,100301.85
2018-08-23T04:45:33.168Z,100302.88
2018-08-23T04:48:04.442Z,100305.33
2018-08-23T04:50:28.317Z,100305.40
2018-08-23T04:52:52.184Z,100308.61
2018-08-23T04:55:16.056Z,100304.09
2018-08-23T04:57:39.956Z,100303.31
2018-08-23T05:00:03.848Z,100305.47
2018-08-23T05:02:28.006Z,100307.03
2018-08-23T05:04:51.951Z,100306.67
2018-08-23T05:07:15.811Z,100297.42
2018-08-23T05:09:39.729Z,100300.91
2018-08-23T05:12:03.578Z,100307.44
2018-08-23T05:14:27.450Z,100304.48
2018-08-23T05:16:51.332Z,100301.39
2018-08-23T05:19:15.274Z,100305.77
2018-08-23T05:21:39.166Z,100299.11
2018-08-23T05:24:09.226Z,100304.73
2018-08-23T05:26:33.136Z,100296.67
2018-08-23T05:29:02.780Z,100301.77
2018-08-23T05:31:27.479Z,100302.55
2018-08-23T05:33:51.427Z,100300.00
2018-08-23T05:36:17.054Z,100299.71
2018-08-23T05:38:40.946Z,100299.06
2018-08-23T05:41:10.097Z,100300.50
2018-08-23T05:43:33.945Z,100303.30
2018-08-23T05:45:58.047Z,100298.57
2018-08-23T05:48:29.305Z,100312.02
2018-08-23T05:50:53.158Z,100310.23
2018-08-23T05:53:18.012Z,100310.21
2018-08-23T05:55:41.884Z,100308.67
2018-08-23T05:58:14.448Z,100303.03
2018-08-23T06:00:38.292Z,100309.16
2018-08-23T06:03:02.201Z,100308.44
2018-08-23T06:05:26.093Z,100307.28
2018-08-23T06:07:49.958Z,100308.69
2018-08-23T06:10:13.831Z,100297.83
2018-08-23T06:12:37.709Z,100298.44
2018-08-23T06:15:01.573Z,100296.01
2018-08-23T06:17:25.514Z,100293.08
2018-08-23T06:19:49.418Z,100299.73
2018-08-23T06:22:13.297Z,100288.45
2018-08-23T06:24:37.217Z,100291.27
2018-08-23T06:27:02.481Z,100292.40
2018-08-23T06:29:28.528Z,100294.56
2018-08-23T06:32:11.415Z,100289.44
2018-08-23T06:34:38.011Z,100292.55
2018-08-23T06:37:01.887Z,100288.02
2018-08-23T06:39:25.777Z,100298.58
2018-08-23T06:41:49.726Z,100296.67
2018-08-23T06:44:13.608Z,100298.39
2018-08-23T06:46:37.509Z,100291.22
2018-08-23T06:49:01.385Z,100289.19
2018-08-23T06:51:25.284Z,100294.96
2018-08-23T06:53:51.165Z,100291.47
2018-08-23T06:56:15.799Z,100288.47
2018-08-23T06:58:39.693Z,100298.16
2018-08-23T07:01:04.331Z,100289.62
2018-08-23T07:03:28.211Z,100290.94
2018-08-23T07:05:52.123Z,100277.70
2018-08-23T07:08:16.083Z,100278.17
2018-08-23T07:10:39.990Z,100280.48
2018-08-23T07:13:03.819Z,100277.87
2018-08-23T07:15:28.500Z,100280.83
2018-08-23T07:17:52.371Z,100278.13
2018-08-23T07:20:17.191Z,100283.50
2018-08-23T07:22:41.191Z,100282.12
2018-08-23T07:25:05.537Z,100284.91
2018-08-23T07:27:29.432Z,100288.98
2018-08-23T07:29:55.304Z,100293.48
2018-08-23T07:32:21.312Z,100295.31
2018-08-23T07:35:18.190Z,100296.97
2018-08-23T07:37:45.500Z,100302.22
2018-08-23T07:40:11.653Z,100299.55
2018-08-23T07:42:36.307Z,100298.11
2018-08-23T07:45:00.607Z,100299.41
2018-08-23T07:47:24.846Z,100299.80
2018-08-23T07:49:48.725Z,100299.67
2018-08-23T07:52:12.818Z,100297.47
2018-08-23T07:54:36.727Z,100297.67
2018-08-23T07:57:00.610Z,100294.27
2018-08-23T07:59:24.464Z,100295.46
2018-08-23T08:01:48.443Z,100293.17
2018-08-23T08:04:12.311Z,100289.77
2018-08-23T08:06:36.597Z,100289.66
2018-08-23T08:09:01.102Z,100296.73
2018-08-23T08:11:24.989Z,100291.78
2018-08-23T08:13:53.000Z,100288.45
2018-08-23T08:16:17.771Z,100294.48
2018-08-23T08:18:41.613Z,100292.12
2018-08-23T08:21:05.505Z,100285.78
2018-08-23T08:23:29.561Z,100286.75
2018-08-23T08:25:53.490Z,100293.69
2018-08-23T08:28:18.214Z,100295.58
2018-08-23T08:30:43.791Z,100293.73
2018-08-23T08:33:08.615Z,100291.42
2018-08-23T08:35:32.417Z,100298.55
2018-08-23T08:37:56.281Z,100297.39
2018-08-23T08:40:24.231Z,100298.33
2018-08-23T08:42:48.103Z,100300.75
2018-08-23T08:45:13.131Z,100302.95
2018-08-23T08:47:37.022Z,100302.16
2018-08-23T08:50:00.911Z,100294.62
2018-08-23T08:52:24.834Z,100293.22
2018-08-23T08:54:48.697Z,100282.93
2018-08-23T08:57:12.650Z,100289.36
2018-08-23T08:59:36.480Z,100293.95
2018-08-23T09:02:00.726Z,100277.64
2018-08-23T09:04:29.962Z,100273.23
2018-08-23T09:06:53.825Z,100278.39
2018-08-23T09:09:35.577Z,100269.46
2018-08-23T09:12:01.715Z,100274.17
2018-08-23T09:14:25.638Z,100262.05
2018-08-23T09:16:49.537Z,100270.03
2018-08-23T09:19:13.426Z,100264.54
2018-08-23T09:21:37.324Z,100258.59
2018-08-23T09:24:14.867Z,100258.05
2018-08-23T09:26:39.228Z,100262.19
2018-08-23T09:29:03.127Z,100256.66
2018-08-23T09:31:26.976Z,100259.03
2018-08-23T09:33:50.917Z,100256.46
2018-08-23T09:36:14.976Z,100248.78
2018-08-23T09:38:38.895Z,100250.69
2018-08-23T09:41:02.780Z,100248.21
2018-08-23T09:43:26.666Z,100239.28
2018-08-23T09:45:50.597Z,100239.50
2018-08-23T09:48:14.488Z,100240.95
2018-08-23T09:50:38.484Z,100232.64
2018-08-23T09:53:02.307Z,100226.00
2018-08-23T09:55:28.433Z,100223.30
2018-08-23T09:57:52.297Z,100139.97
2018-08-23T10:00:21.490Z,100215.39
2018-08-23T10:02:50.852Z,100212.45
2018-08-23T10:05:20.201Z,100208.78
2018-08-23T10:07:49.482Z,100202.35
2018-08-23T10:10:18.754Z,100201.72
2018-08-23T10:12:48.060Z,100197.41
2018-08-23T10:15:17.393Z,100193.98
2018-08-23T10:17:46.588Z,100195.38
2018-08-23T10:20:15.852Z,100186.53
2018-08-23T10:22:45.122Z,100191.12
2018-08-23T10:25:26.092Z,100181.88
2018-08-23T10:27:50.127Z,100186.53
2018-08-23T10:30:14.075Z,100182.23
2018-08-23T10:32:38.029Z,100188.01
2018-08-23T10:35:01.927Z,100183.00
2018-08-23T10:37:25.895Z,100182.86
2018-08-23T10:39:50.032Z,100196.06
2018-08-23T10:42:15.866Z,100186.34
2018-08-23T10:44:39.814Z,100185.68
2018-08-23T10:47:03.714Z,100178.96
2018-08-23T10:49:27.629Z,100171.00
2018-08-23T10:51:51.532Z,100168.46
2018-08-23T10:54:15.491Z,100173.99
2018-08-23T10:56:39.388Z,100172.59
2018-08-23T10:59:03.323Z,100170.20
2018-08-23T11:01:27.257Z,100168.19
2018-08-23T11:03:51.221Z,100162.06
2018-08-23T11:06:15.144Z,100164.91
2018-08-23T11:08:39.326Z,100165.42
2018-08-23T11:11:08.734Z,100164.14
2018-08-23T11:13:48.761Z,100158.34
2018-08-23T11:16:17.896Z,100161.20
2018-08-23T11:18:47.128Z,100173.28
2018-08-23T11:21:15.969Z,100168.93
2018-08-23T11:23:39.974Z,100166.54
2018-08-23T11:26:03.927Z,100165.23
2018-08-23T11:28:28.005Z,100163.59
2018-08-23T11:30:52.611Z,100162.05
2018-08-23T11:33:16.762Z,100157.05
2018-08-23T11:35:40.719Z,100158.42
2018-08-23T11:38:05.335Z,100155.86
2018-08-23T11:40:29.250Z,100149.97
2018-08-23T11:42:53.320Z,100150.98
2018-08-23T11:45:17.193Z,100151.27
2018-08-23T11:47:41.108Z,100144.67
2018-08-23T11:50:05.385Z,100156.69
2018-08-23T11:52:29.327Z,100144.44
2018-08-23T11:54:53.229Z,100141.55
2018-08-23T11:57:17.339Z,100143.20
2018-08-23T11:59:41.281Z,100088.78
2018-08-23T12:02:05.403Z,100141.39
2018-08-23T12:04:29.579Z,100146.48
2018-08-23T12:06:56.433Z,100127.25
2018-08-23T12:09:22.824Z,100132.42
2018-08-23T12:11:46.725Z,100136.13
2018-08-23T12:14:11.720Z,100126.05
2018-08-23T12:16:35.647Z,100121.49
2018-08-23T12:18:59.530Z,100126.58
2018-08-23T12:21:23.511Z,100129.61
2018-08-23T12:23:47.416Z,100130.55
2018-08-23T12:26:11.542Z,100117.39
2018-08-23T12:28:40.641Z,100122.69
2018-08-23T12:31:04.599Z,100114.73
2018-08-23T12:33:28.637Z,100110.38
2018-08-23T12:35:52.611Z,100114.42
2018-08-23T12:38:21.807Z,100109.56
2018-08-23T12:40:51.069Z,100113.89
2018-08-23T12:43:14.993Z,100111.66
2018-08-23T12:45:40.473Z,100110.80
2018-08-23T12:48:04.381Z,100114.23
2018-08-23T12:50:28.368Z,100117.81
2018-08-23T12:52:52.312Z,100106.84
2018-08-23T12:55:16.269Z,100103.19
2018-08-23T12:57:40.175Z,100101.76
2018-08-23T13:00:04.142Z,100101.43
2018-08-23T13:02:28.649Z,100103.71
2018-08-23T13:04:52.558Z,100103.78
2018-08-23T13:07:16.478Z,100088.53
2018-08-23T13:09:40.416Z,100091.95
2018-08-23T13:12:04.331Z,100090.09
2018-08-23T13:14:28.339Z,100097.47
2018-08-23T13:16:52.247Z,100083.16
2018-08-23T13:19:16.199Z,100088.43
2018-08-23T13:21:40.154Z,100087.52
2018-08-23T13:24:04.197Z,100092.77
2018-08-23T13:26:33.567Z,100083.18
2018-08-23T13:28:57.483Z,100068.96
2018-08-23T13:31:21.438Z,100071.69
2018-08-23T13:33:46.968Z,100066.17
2018-08-23T13:36:10.933Z,100077.41
2018-08-23T13:38:34.830Z,100070.05
2018-08-23T13:40:58.765Z,100065.53
2018-08-23T13:43:22.681Z,100062.95
2018-08-23T13:45:46.606Z,100057.39
2018-08-23T13:48:10.556Z,100051.38
2018-08-23T13:50:34.524Z,100049.95
2018-08-23T13:52:58.428Z,100032.39
2018-08-23T13:55:22.923Z,100035.72
2018-08-23T13:57:46.888Z,100044.28
2018-08-23T14:00:14.964Z,100052.90
2018-08-23T14:02:38.945Z,100047.45
2018-08-23T14:05:02.976Z,100048.45
2018-08-23T14:07:26.922Z,100043.36
2018-08-23T14:09:50.910Z,100034.55
2018-08-23T14:12:14.872Z,100032.34
2018-08-23T14:14:38.846Z,100030.37
2018-08-23T14:17:02.916Z,100039.36
2018-08-23T14:19:26.935Z,100033.07
2018-08-23T14:21:50.841Z,100038.96
2018-08-23T14:24:14.811Z,100035.75
2018-08-23T14:26:38.729Z,100028.09
2018-08-23T14:29:02.685Z,100021.66
2018-08-23T14:31:26.609Z,100014.78
2018-08-23T14:33:50.553Z,100020.56
2018-08-23T14:36:14.574Z,100013.86
2018-08-23T14:38:38.519Z,100014.86
2018-08-23T14:41:02.459Z,100012.12
2018-08-23T14:43:26.385Z,100008.53
2018-08-23T14:45:50.315Z,100006.21
2018-08-23T14:48:20.826Z,99994.09
2018-08-23T14:50:44.773Z,99996.13
2018-08-23T14:53:08.678Z,99992.73
2018-08-23T14:55:37.896Z,99987.70
2018-08-23T14:58:01.820Z,99990.21
2018-08-23T15:00:25.691Z,99987.41
2018-08-23T15:02:49.667Z,99988.13
2018-08-23T15:05:13.775Z,99978.70
2018-08-23T15:07:37.715Z,99980.81
2018-08-23T15:10:01.534Z,99973.16
2018-08-23T15:12:25.389Z,99974.55
2018-08-23T15:14:49.673Z,99970.88
2018-08-23T15:17:13.629Z,99981.16
2018-08-23T15:19:37.502Z,99969.50
2018-08-23T15:22:01.376Z,99966.64
2018-08-23T15:24:25.299Z,99949.41
2018-08-23T15:26:49.399Z,99974.27
2018-08-23T15:29:13.761Z,99969.44
2018-08-23T15:31:37.647Z,99974.30
2018-08-23T15:34:01.634Z,99975.43
2018-08-23T15:36:25.546Z,99966.63
2018-08-23T15:38:49.501Z,99965.64
2018-08-23T15:41:13.382Z,99959.00
2018-08-23T15:43:37.279Z,99957.63
2018-08-23T15:46:01.174Z,99958.40
2018-08-23T15:48:25.077Z,99953.48
2018-08-23T15:50:49.065Z,99954.08
2018-08-23T15:53:12.962Z,99956.27
2018-08-23T15:55:37.015Z,99956.20
2018-08-23T15:58:00.789Z,99960.95
2018-08-23T16:00:24.656Z,99954.44
2018-08-23T16:02:49.335Z,99964.44
2018-08-23T16:05:13.258Z,99963.32
2018-08-23T16:07:37.153Z,99963.58
2018-08-23T16:10:01.241Z,99972.03
2018-08-23T16:12:25.163Z,99966.56
2018-08-23T16:14:49.107Z,99965.10
2018-08-23T16:17:18.297Z,99967.71
2018-08-23T16:19:47.444Z,99969.87
2018-08-23T16:22:11.384Z,99965.36
2018-08-23T16:24:35.333Z,99956.17
2018-08-23T16:27:04.245Z,99963.75
2018-08-23T16:29:28.169Z,99964.30
2018-08-23T16:31:52.169Z,99961.36
2018-08-23T16:34:16.076Z,99960.62
2018-08-23T16:36:40.033Z,99967.31
2018-08-23T16:39:05.151Z,99956.89
2018-08-23T16:41:29.127Z,99955.03
2018-08-23T16:43:52.992Z,99948.95
2018-08-23T16:46:16.958Z,99951.80
2018-08-23T16:48:40.855Z,99948.01
2018-08-23T16:51:04.812Z,99938.94
2018-08-23T16:53:28.686Z,99944.75
2018-08-23T16:55:52.629Z,99941.55
2018-08-23T16:58:16.639Z,99933.04
2018-08-23T17:00:40.496Z,99938.09
2018-08-23T17:03:04.459Z,99934.25
2018-08-23T17:05:28.359Z,99927.86
2018-08-23T17:07:52.249Z,99912.57
2018-08-23T17:10:16.286Z,99932.37
2018-08-23T17:12:40.154Z,99933.12
2018-08-23T17:15:04.385Z,99923.53
2018-08-23T17:17:32.836Z,99924.09
2018-08-23T17:19:57.044Z,99916.91
2018-08-23T17:22:20.972Z,99918.46
2018-08-23T17:24:44.951Z,99920.63
2018-08-23T17:27:09.764Z,99919.89
2018-08-23T17:29:33.662Z,99918.50
2018-08-23T17:31:57.554Z,99929.38
2018-08-23T17:34:21.458Z,99927.78
2018-08-23T17:36:45.388Z,99933.44
2018-08-23T17:39:09.910Z,99935.46
2018-08-23T17:41:33.799Z,99932.19
2018-08-23T17:43:57.714Z,99933.93
2018-08-23T17:46:21.645Z,99934.52
2018-08-23T17:48:45.584Z,99934.03
2018-08-23T17:51:09.478Z,99931.25
2018-08-23T17:53:33.580Z,99932.87
2018-08-23T17:55:57.434Z,99922.80
2018-08-23T17:58:21.370Z,99921.43
2018-08-23T18:00:45.272Z,99928.48
2018-08-23T18:03:09.416Z,99929.09
2018-08-23T18:05:33.508Z,99929.00
2018-08-23T18:07:57.378Z,99929.50
2018-08-23T18:10:21.276Z,99933.71
2018-08-23T18:12:45.220Z,99936.09
2018-08-23T18:15:10.006Z,99933.34
2018-08-23T18:17:33.931Z,99935.67
2018-08-23T18:19:57.802Z,99936.00
2018-08-23T18:22:21.760Z,99938.29
2018-08-23T18:24:45.763Z,99935.73
2018-08-23T18:27:09.672Z,99931.63
2018-08-23T18:29:33.593Z,99935.92
2018-08-23T18:31:57.504Z,99937.27
2018-08-23T18:34:21.435Z,99940.64
2018-08-23T18:36:45.414Z,99932.14
2018-08-23T18:39:10.923Z,99941.51
2018-08-23T18:41:34.891Z,99937.87
2018-08-23T18:43:58.836Z,99941.55
2018-08-23T18:46:22.733Z,99941.02
2018-08-23T18:48:46.693Z,99941.75
2018-08-23T18:51:10.607Z,99946.63
2018-08-23T18:53:34.508Z,99945.55
2018-08-23T18:55:58.459Z,99937.81
2018-08-23T18:58:23.232Z,99942.16
2018-08-23T19:00:47.171Z,99940.02
2018-08-23T19:03:11.130Z,99938.94
2018-08-23T19:05:35.135Z,99943.79
2018-08-23T19:07:59.024Z,99941.34
2018-08-23T19:10:23.081Z,99942.70
2018-08-23T19:12:47.057Z,99941.45
2018-08-23T19:15:10.958Z,99944.72
2018-08-23T19:17:39.840Z,99939.30
2018-08-23T19:20:03.985Z,99943.19
2018-08-23T19:22:27.906Z,99939.69
2018-08-23T19:24:51.908Z,99936.03
2018-08-23T19:27:16.035Z,99940.11
2018-08-23T19:29:39.978Z,99938.17
2018-08-23T19:32:04.145Z,99933.71
2018-08-23T19:34:27.827Z,99935.57
2018-08-23T19:36:51.771Z,99938.84
2018-08-23T19:39:15.655Z,99943.56
2018-08-23T19:41:39.602Z,99937.08
2018-08-23T19:44:03.499Z,99939.30
2018-08-23T19:46:32.602Z,99937.97
2018-08-23T19:49:01.704Z,99938.45
2018-08-23T19:51:25.628Z,99948.34
2018-08-23T19:53:49.646Z,99941.78
2018-08-23T19:56:13.551Z,99937.69
2018-08-23T19:58:37.545Z,99938.23
2018-08-23T20:01:01.497Z,99938.81
2018-08-23T20:03:25.391Z,99935.58
2018-08-23T20:05:49.502Z,99939.77
2018-08-23T20:08:13.380Z,99947.09
2018-08-23T20:10:37.304Z,99957.56
2018-08-23T20:13:01.248Z,99954.24
2018-08-23T20:15:26.362Z,99953.30
2018-08-23T20:17:50.314Z,99950.73
2018-08-23T20:20:14.184Z,99953.30
2018-08-23T20:22:38.064Z,99946.95
2018-08-23T20:25:02.057Z,99947.98
2018-08-23T20:27:25.896Z,99941.80
2018-08-23T20:29:49.892Z,99907.73
2018-08-23T20:32:13.804Z,99935.94
2018-08-23T20:34:37.731Z,99927.74
2018-08-23T20:37:01.677Z,99927.42
2018-08-23T20:39:25.746Z,99925.98
2018-08-23T20:41:49.564Z,99928.47
2018-08-23T20:44:13.537Z,99926.55
2018-08-23T20:46:37.739Z,99924.19
2018-08-23T20:49:01.773Z,99927.03
2018-08-23T20:51:25.698Z,99927.69
2018-08-23T20:53:49.664Z,99922.69
2018-08-23T20:56:13.647Z,99924.36
2018-08-23T20:58:37.541Z,99920.83
2018-08-23T21:01:01.476Z,99922.45
2018-08-23T21:03:25.368Z,99916.20
2018-08-23T21:05:49.301Z,99921.03
2018-08-23T21:08:13.188Z,99917.80
2018-08-23T21:10:37.068Z,99916.26
2018-08-23T21:13:01.336Z,99922.02
2018-08-23T21:15:25.230Z,99908.58
2018-08-23T21:17:49.206Z,99916.02
2018-08-23T21:20:13.189Z,99912.34
2018-08-23T21:22:37.100Z,99908.75
2018-08-23T21:25:01.441Z,99905.88
2018-08-23T21:27:25.342Z,99909.16
2018-08-23T21:29:49.308Z,99908.33
2018-08-23T21:32:13.242Z,99909.11
2018-08-23T21:34:37.134Z,99903.86
2018-08-23T21:37:01.007Z,99912.76
2018-08-23T21:39:24.878Z,99912.52
2018-08-23T21:41:48.740Z,99912.83
2018-08-23T21:44:12.651Z,99909.16
2018-08-23T21:46:36.562Z,99914.08
2018-08-23T21:49:00.783Z,99916.02
2018-08-23T21:51:24.705Z,99920.97
2018-08-23T21:53:48.683Z,99918.09
2018-08-23T21:56:12.718Z,99918.56
2018-08-23T21:58:36.705Z,99923.38
2018-08-23T22:01:06.008Z,99926.47
2018-08-23T22:03:30.195Z,99908.55
2018-08-23T22:05:54.118Z,99907.50
2018-08-23T22:08:18.011Z,99909.75
2018-08-23T22:10:41.936Z,99902.66
2018-08-23T22:13:05.968Z,99894.41
2018-08-23T22:15:29.871Z,99902.17
2018-08-23T22:17:53.774Z,99899.44
2018-08-23T22:20:18.002Z,99895.36
2018-08-23T22:22:41.905Z,99897.30
2018-08-23T22:25:06.136Z,99901.61
2018-08-23T22:27:30.075Z,99902.60
2018-08-23T22:29:53.941Z,99894.17
2018-08-23T22:32:18.105Z,99888.23
2018-08-23T22:34:41.998Z,99887.37
2018-08-23T22:37:05.902Z,99888.17
2018-08-23T22:39:30.535Z,99879.03
2018-08-23T22:41:54.406Z,99886.02
2018-08-23T22:44:18.601Z,99887.38
2018-08-23T22:46:42.522Z,99877.70
2018-08-23T22:49:06.399Z,99882.03
2018-08-23T22:51:30.305Z,99876.84
2018-08-23T22:53:54.195Z,99877.45
2018-08-23T22:56:18.260Z,99875.10
2018-08-23T22:58:42.135Z,99873.59
2018-08-23T23:01:06.132Z,99875.78
2018-08-23T23:03:35.246Z,99875.73
2018-08-23T23:06:05.627Z,99867.73
2018-08-23T23:08:29.684Z,99864.64
2018-08-23T23:10:53.589Z,99867.56
2018-08-23T23:13:17.666Z,99868.99
2018-08-23T23:15:41.554Z,99867.97
2018-08-23T23:18:05.857Z,99871.61
2018-08-23T23:20:29.920Z,99873.66
2018-08-23T23:22:53.797Z,99872.31
2018-08-23T23:25:17.685Z,99881.17
2018-08-23T23:27:41.604Z,99876.12
2018-08-23T23:30:06.175Z,99877.40
2018-08-23T23:32:30.075Z,99874.61
2018-08-23T23:34:54.371Z,99872.66
2018-08-23T23:37:18.293Z,99870.31
2018-08-23T23:39:42.186Z,99863.20
2018-08-23T23:42:06.133Z,99863.09
2018-08-23T23:44:30.090Z,99860.33
2018-08-23T23:46:53.956Z,99860.14
2018-08-23T23:49:17.880Z,99870.82
2018-08-23T23:51:41.873Z,99866.15
2018-08-23T23:54:05.788Z,99871.17
2018-08-23T23:56:29.717Z,99875.53
2018-08-23T23:58:53.614Z,99870.61
